Aeroporto :
LOGIN :

Iscrizione | Disclaimer

   EN    FR    IT 

 










Sommario :    VFR   VFR Marginale   IFR   IFR Intensivo   IFR Molto Intensivo
Visibilità : 
Base nubi : 
>= 8 km
>= 3000ft
5 / 8 km
1000 / 3000 ft
1500m / 5 km
500 / 1000 ft
800 / 1500m
200 / 500 ft
< 800m
< 200 ft
Simboli :   Temporali  Nebbia  Neve Forte  Precipitazioni Forti  Vento > 20 kt
SIGMETs :   Varie  Temporali  Ghiacco  Turbolenza  Onda orograficha  Ceneri Vulcaniche






- Altitudine del aeroporto : 74 ft
- Codice IATA : LRH


LFBH - La Rochelle Ile de Ré

ULTIMO METAR :
  • 260100Z AUTO 11008KT CAVOK 09/07 Q1015 NOSIG

METARs OBSOLETI :
  • 260030Z AUTO 09010KT CAVOK 09/07 Q1015 NOSIG
  • 260000Z AUTO 09009KT 9000 NSC 09/07 Q1015 NOSIG
  • 252330Z AUTO 09008KT 8000 NSC 09/08 Q1015 NOSIG
  • 252300Z AUTO 09008KT 8000 FEW046 BKN058 09/08 Q1015 NOSIG
  • 252230Z AUTO 09008KT 8000 FEW047 BKN056 10/08 Q1015 NOSIG

TAF TAF LFBH
Valido dal 26 a 00 ore il 27 a 00 ore UTC


252300Z 2600/2624 09008KT CAVOK
PROB30 2604/2608 4000 BR
ATIS : +33 5 46 00 13 92



MetMap, La meteo Aeronautica in un colpo d'occhio ! - Copyright ORBIFLY Dicembre 2007 - Disclaimer

ORBIFLY MET'MAP TEAM :

Programmazione e sviluppo : Alexandra Zaïnal
Concezione : Baudouin d'Aumeries
Aiuto per la programmazione : Marc-Olivier Méhu
Supporto tecnico e logistico : Manuel Goepfert
Aiuto per la traduzione : Arnaldo La Scala

Contatto : metmap@orbifly.com




FONTI E CREDITI :

   NOAA